Nashville, Tennessee
Traffic Map
Current Weather Conditions
Nashville, Tennessee
Few Clouds
Few Clouds
82°
Feels Like: 86°
Wind Chill: 82° Ceiling: Unl
Heat Index: 86° Visibility: 10mi
Dew Point: 71° Wind: 0mph
Humidity: 69% Direction: ° ()
Pressure: 30.01in Gusts: 0mph
Raw Report DataKBNA 260353Z 00000KT 10SM FEW250 28/22 A3001 RMK AO2 SLP152 T02780217
Traffic Incident Summary
Active as of:
Severity:
Category:
InformationThere was an issue retrieving the traffic information for this location. Please try a different location or try again shortly.
Advertisements
Track Severe Weather on mobile